sensor_id;sensor_type;location;lat;lon;timestamp;P1;durP1;ratioP1;P2;durP2;ratioP2
37199;SDS011;23096;50.892;16.746;2024-02-04T00:00:23;1.60;;;1.30;;
37199;SDS011;23096;50.892;16.746;2024-02-04T00:02:49;3.40;;;2.10;;
37199;SDS011;23096;50.892;16.746;2024-02-04T00:05:14;2.00;;;1.30;;
37199;SDS011;23096;50.892;16.746;2024-02-04T00:07:40;1.90;;;1.50;;
37199;SDS011;23096;50.892;16.746;2024-02-04T00:10:06;1.70;;;1.60;;
37199;SDS011;23096;50.892;16.746;2024-02-04T00:12:32;2.40;;;1.60;;
37199;SDS011;23096;50.892;16.746;2024-02-04T00:14:58;2.20;;;1.50;;
37199;SDS011;23096;50.892;16.746;2024-02-04T00:17:23;1.70;;;1.30;;
37199;SDS011;23096;50.892;16.746;2024-02-04T00:19:55;2.60;;;1.60;;
37199;SDS011;23096;50.892;16.746;2024-02-04T00:22:21;1.20;;;1.10;;
37199;SDS011;23096;50.892;16.746;2024-02-04T00:24:47;2.90;;;1.50;;
37199;SDS011;23096;50.892;16.746;2024-02-04T00:27:13;2.60;;;2.00;;
37199;SDS011;23096;50.892;16.746;2024-02-04T00:29:38;2.30;;;1.70;;
37199;SDS011;23096;50.892;16.746;2024-02-04T00:32:04;3.40;;;1.80;;
37199;SDS011;23096;50.892;16.746;2024-02-04T00:34:30;2.40;;;1.70;;
37199;SDS011;23096;50.892;16.746;2024-02-04T00:36:55;1.80;;;1.60;;
37199;SDS011;23096;50.892;16.746;2024-02-04T00:39:21;5.60;;;2.20;;
37199;SDS011;23096;50.892;16.746;2024-02-04T00:41:46;2.10;;;1.70;;
37199;SDS011;23096;50.892;16.746;2024-02-04T00:44:12;4.40;;;2.40;;
37199;SDS011;23096;50.892;16.746;2024-02-04T00:46:37;3.80;;;2.60;;
37199;SDS011;23096;50.892;16.746;2024-02-04T00:49:03;4.00;;;1.90;;
37199;SDS011;23096;50.892;16.746;2024-02-04T00:51:29;3.60;;;2.00;;
37199;SDS011;23096;50.892;16.746;2024-02-04T00:53:54;8.90;;;3.70;;
37199;SDS011;23096;50.892;16.746;2024-02-04T00:56:20;2.00;;;1.80;;
37199;SDS011;23096;50.892;16.746;2024-02-04T00:58:46;1.40;;;1.30;;
37199;SDS011;23096;50.892;16.746;2024-02-04T01:01:11;1.40;;;1.00;;
37199;SDS011;23096;50.892;16.746;2024-02-04T01:03:37;1.60;;;1.50;;
37199;SDS011;23096;50.892;16.746;2024-02-04T01:06:03;2.20;;;1.60;;
37199;SDS011;23096;50.892;16.746;2024-02-04T01:08:29;1.40;;;1.30;;
37199;SDS011;23096;50.892;16.746;2024-02-04T01:10:54;1.40;;;1.20;;
37199;SDS011;23096;50.892;16.746;2024-02-04T01:13:20;1.20;;;1.10;;
37199;SDS011;23096;50.892;16.746;2024-02-04T01:15:45;3.10;;;1.40;;
37199;SDS011;23096;50.892;16.746;2024-02-04T01:18:11;1.30;;;0.90;;
37199;SDS011;23096;50.892;16.746;2024-02-04T01:20:37;3.20;;;0.80;;
37199;SDS011;23096;50.892;16.746;2024-02-04T01:23:02;1.60;;;1.20;;
37199;SDS011;23096;50.892;16.746;2024-02-04T01:25:28;2.60;;;0.90;;
37199;SDS011;23096;50.892;16.746;2024-02-04T01:27:53;2.50;;;1.10;;
37199;SDS011;23096;50.892;16.746;2024-02-04T01:30:20;0.70;;;0.60;;
37199;SDS011;23096;50.892;16.746;2024-02-04T01:32:45;0.90;;;0.60;;
37199;SDS011;23096;50.892;16.746;2024-02-04T01:35:11;0.70;;;0.70;;
37199;SDS011;23096;50.892;16.746;2024-02-04T01:37:37;1.40;;;0.90;;
37199;SDS011;23096;50.892;16.746;2024-02-04T01:40:03;0.90;;;0.70;;
37199;SDS011;23096;50.892;16.746;2024-02-04T01:42:32;1.10;;;0.90;;
37199;SDS011;23096;50.892;16.746;2024-02-04T01:44:57;1.30;;;0.80;;
37199;SDS011;23096;50.892;16.746;2024-02-04T01:47:23;1.00;;;0.80;;
37199;SDS011;23096;50.892;16.746;2024-02-04T01:49:49;0.90;;;0.90;;
37199;SDS011;23096;50.892;16.746;2024-02-04T01:52:14;1.50;;;1.10;;
37199;SDS011;23096;50.892;16.746;2024-02-04T01:54:43;1.30;;;1.20;;
37199;SDS011;23096;50.892;16.746;2024-02-04T01:57:10;1.90;;;1.40;;
37199;SDS011;23096;50.892;16.746;2024-02-04T01:59:37;1.80;;;1.60;;
37199;SDS011;23096;50.892;16.746;2024-02-04T02:02:04;1.70;;;1.40;;
37199;SDS011;23096;50.892;16.746;2024-02-04T02:04:30;2.20;;;1.50;;
37199;SDS011;23096;50.892;16.746;2024-02-04T02:06:56;3.20;;;1.50;;
37199;SDS011;23096;50.892;16.746;2024-02-04T02:09:24;2.60;;;1.60;;
37199;SDS011;23096;50.892;16.746;2024-02-04T02:11:57;1.90;;;1.80;;
37199;SDS011;23096;50.892;16.746;2024-02-04T02:14:26;2.20;;;1.50;;
37199;SDS011;23096;50.892;16.746;2024-02-04T02:16:56;3.80;;;2.00;;
37199;SDS011;23096;50.892;16.746;2024-02-04T02:19:39;1.90;;;1.70;;
37199;SDS011;23096;50.892;16.746;2024-02-04T02:24:56;3.30;;;1.80;;
37199;SDS011;23096;50.892;16.746;2024-02-04T02:27:22;1.60;;;1.40;;
37199;SDS011;23096;50.892;16.746;2024-02-04T02:29:48;2.40;;;1.30;;
37199;SDS011;23096;50.892;16.746;2024-02-04T02:32:13;1.60;;;1.30;;
37199;SDS011;23096;50.892;16.746;2024-02-04T02:34:39;2.30;;;1.50;;
37199;SDS011;23096;50.892;16.746;2024-02-04T02:40:25;1.20;;;1.10;;
37199;SDS011;23096;50.892;16.746;2024-02-04T02:43:00;1.60;;;1.40;;
37199;SDS011;23096;50.892;16.746;2024-02-04T02:45:27;1.60;;;1.10;;
37199;SDS011;23096;50.892;16.746;2024-02-04T02:47:54;2.20;;;1.30;;
37199;SDS011;23096;50.892;16.746;2024-02-04T02:50:20;4.90;;;1.50;;
37199;SDS011;23096;50.892;16.746;2024-02-04T02:52:46;2.00;;;1.20;;
37199;SDS011;23096;50.892;16.746;2024-02-04T02:55:12;3.40;;;1.10;;
37199;SDS011;23096;50.892;16.746;2024-02-04T02:57:38;1.70;;;1.10;;
37199;SDS011;23096;50.892;16.746;2024-02-04T03:00:04;1.50;;;1.00;;
37199;SDS011;23096;50.892;16.746;2024-02-04T03:02:32;1.90;;;1.30;;
37199;SDS011;23096;50.892;16.746;2024-02-04T03:04:57;1.90;;;1.00;;
37199;SDS011;23096;50.892;16.746;2024-02-04T03:07:23;4.10;;;2.30;;
37199;SDS011;23096;50.892;16.746;2024-02-04T03:09:49;6.00;;;2.90;;
37199;SDS011;23096;50.892;16.746;2024-02-04T03:12:14;5.90;;;2.40;;
37199;SDS011;23096;50.892;16.746;2024-02-04T03:14:40;4.30;;;2.70;;
37199;SDS011;23096;50.892;16.746;2024-02-04T03:17:05;1.50;;;1.10;;
37199;SDS011;23096;50.892;16.746;2024-02-04T03:19:31;2.40;;;0.90;;
37199;SDS011;23096;50.892;16.746;2024-02-04T03:21:57;1.70;;;1.00;;
37199;SDS011;23096;50.892;16.746;2024-02-04T03:24:22;1.20;;;1.10;;
37199;SDS011;23096;50.892;16.746;2024-02-04T03:26:48;6.30;;;1.70;;
37199;SDS011;23096;50.892;16.746;2024-02-04T03:29:14;1.70;;;1.40;;
37199;SDS011;23096;50.892;16.746;2024-02-04T03:31:39;3.90;;;1.20;;
37199;SDS011;23096;50.892;16.746;2024-02-04T03:34:05;2.50;;;1.20;;
37199;SDS011;23096;50.892;16.746;2024-02-04T03:36:31;2.90;;;1.00;;
37199;SDS011;23096;50.892;16.746;2024-02-04T03:38:57;2.50;;;1.20;;
37199;SDS011;23096;50.892;16.746;2024-02-04T03:41:22;2.20;;;0.90;;
37199;SDS011;23096;50.892;16.746;2024-02-04T03:43:48;1.40;;;0.90;;
37199;SDS011;23096;50.892;16.746;2024-02-04T03:46:14;2.60;;;0.90;;
37199;SDS011;23096;50.892;16.746;2024-02-04T03:48:41;2.70;;;0.90;;
37199;SDS011;23096;50.892;16.746;2024-02-04T03:51:08;1.30;;;0.90;;
37199;SDS011;23096;50.892;16.746;2024-02-04T03:53:33;2.00;;;1.00;;
37199;SDS011;23096;50.892;16.746;2024-02-04T03:55:59;2.30;;;1.00;;
37199;SDS011;23096;50.892;16.746;2024-02-04T03:58:25;1.20;;;1.00;;
37199;SDS011;23096;50.892;16.746;2024-02-04T04:00:57;5.70;;;2.30;;
37199;SDS011;23096;50.892;16.746;2024-02-04T04:03:23;1.10;;;0.80;;
37199;SDS011;23096;50.892;16.746;2024-02-04T04:05:49;3.50;;;1.00;;
37199;SDS011;23096;50.892;16.746;2024-02-04T04:08:14;1.50;;;1.00;;
37199;SDS011;23096;50.892;16.746;2024-02-04T04:10:40;2.40;;;1.30;;
37199;SDS011;23096;50.892;16.746;2024-02-04T04:13:05;3.40;;;1.20;;
37199;SDS011;23096;50.892;16.746;2024-02-04T04:15:31;1.50;;;1.10;;
37199;SDS011;23096;50.892;16.746;2024-02-04T04:17:57;5.30;;;1.30;;
37199;SDS011;23096;50.892;16.746;2024-02-04T04:20:22;2.20;;;1.20;;
37199;SDS011;23096;50.892;16.746;2024-02-04T04:22:48;2.10;;;1.10;;
37199;SDS011;23096;50.892;16.746;2024-02-04T04:25:13;3.40;;;1.50;;
37199;SDS011;23096;50.892;16.746;2024-02-04T04:27:39;3.30;;;1.50;;
37199;SDS011;23096;50.892;16.746;2024-02-04T04:30:05;5.50;;;2.00;;
37199;SDS011;23096;50.892;16.746;2024-02-04T04:32:36;5.40;;;1.90;;
37199;SDS011;23096;50.892;16.746;2024-02-04T04:35:02;4.30;;;2.00;;
37199;SDS011;23096;50.892;16.746;2024-02-04T04:37:28;3.80;;;1.70;;
37199;SDS011;23096;50.892;16.746;2024-02-04T04:39:54;3.00;;;1.20;;
37199;SDS011;23096;50.892;16.746;2024-02-04T04:42:20;3.40;;;1.30;;
37199;SDS011;23096;50.892;16.746;2024-02-04T04:44:45;2.70;;;1.10;;
37199;SDS011;23096;50.892;16.746;2024-02-04T04:47:11;2.80;;;1.80;;
37199;SDS011;23096;50.892;16.746;2024-02-04T04:49:37;3.10;;;1.60;;
37199;SDS011;23096;50.892;16.746;2024-02-04T04:52:02;2.70;;;1.50;;
37199;SDS011;23096;50.892;16.746;2024-02-04T04:54:28;2.30;;;1.50;;
37199;SDS011;23096;50.892;16.746;2024-02-04T04:56:54;3.20;;;1.60;;
37199;SDS011;23096;50.892;16.746;2024-02-04T04:59:19;3.00;;;1.50;;
37199;SDS011;23096;50.892;16.746;2024-02-04T05:01:48;3.50;;;1.10;;
37199;SDS011;23096;50.892;16.746;2024-02-04T05:04:15;3.20;;;1.40;;
37199;SDS011;23096;50.892;16.746;2024-02-04T05:06:42;4.50;;;1.30;;
37199;SDS011;23096;50.892;16.746;2024-02-04T05:09:07;3.70;;;1.10;;
37199;SDS011;23096;50.892;16.746;2024-02-04T05:11:34;2.90;;;1.10;;
37199;SDS011;23096;50.892;16.746;2024-02-04T05:13:59;6.50;;;1.40;;
37199;SDS011;23096;50.892;16.746;2024-02-04T05:16:25;5.40;;;1.30;;
37199;SDS011;23096;50.892;16.746;2024-02-04T05:18:50;3.90;;;1.20;;
37199;SDS011;23096;50.892;16.746;2024-02-04T05:21:16;6.60;;;1.20;;
37199;SDS011;23096;50.892;16.746;2024-02-04T05:23:42;6.70;;;1.40;;
37199;SDS011;23096;50.892;16.746;2024-02-04T05:26:07;2.80;;;1.40;;
37199;SDS011;23096;50.892;16.746;2024-02-04T05:28:33;4.50;;;2.00;;
37199;SDS011;23096;50.892;16.746;2024-02-04T05:30:58;3.10;;;1.70;;
37199;SDS011;23096;50.892;16.746;2024-02-04T05:33:26;3.90;;;2.10;;
37199;SDS011;23096;50.892;16.746;2024-02-04T05:35:51;3.80;;;1.70;;
37199;SDS011;23096;50.892;16.746;2024-02-04T05:38:17;5.80;;;2.10;;
37199;SDS011;23096;50.892;16.746;2024-02-04T05:40:43;4.10;;;1.60;;
37199;SDS011;23096;50.892;16.746;2024-02-04T05:43:08;5.80;;;2.40;;
37199;SDS011;23096;50.892;16.746;2024-02-04T05:45:38;3.20;;;1.90;;
37199;SDS011;23096;50.892;16.746;2024-02-04T05:48:09;10.00;;;3.10;;
37199;SDS011;23096;50.892;16.746;2024-02-04T05:50:35;8.80;;;4.10;;
37199;SDS011;23096;50.892;16.746;2024-02-04T05:53:01;8.10;;;3.50;;
37199;SDS011;23096;50.892;16.746;2024-02-04T05:55:28;9.70;;;3.50;;
37199;SDS011;23096;50.892;16.746;2024-02-04T05:57:54;11.10;;;4.50;;
37199;SDS011;23096;50.892;16.746;2024-02-04T06:00:20;9.90;;;4.30;;
37199;SDS011;23096;50.892;16.746;2024-02-04T06:02:45;6.30;;;2.90;;
37199;SDS011;23096;50.892;16.746;2024-02-04T06:05:11;7.60;;;3.60;;
37199;SDS011;23096;50.892;16.746;2024-02-04T06:07:39;4.50;;;2.20;;
37199;SDS011;23096;50.892;16.746;2024-02-04T06:10:08;4.30;;;2.60;;
37199;SDS011;23096;50.892;16.746;2024-02-04T06:12:35;7.30;;;2.30;;
37199;SDS011;23096;50.892;16.746;2024-02-04T06:15:00;6.40;;;2.60;;
37199;SDS011;23096;50.892;16.746;2024-02-04T06:17:26;4.80;;;2.30;;
37199;SDS011;23096;50.892;16.746;2024-02-04T06:19:52;6.00;;;2.90;;
37199;SDS011;23096;50.892;16.746;2024-02-04T06:22:17;4.30;;;2.00;;
37199;SDS011;23096;50.892;16.746;2024-02-04T06:24:43;7.60;;;2.20;;
37199;SDS011;23096;50.892;16.746;2024-02-04T06:27:08;4.40;;;2.60;;
37199;SDS011;23096;50.892;16.746;2024-02-04T06:29:35;5.00;;;2.00;;
37199;SDS011;23096;50.892;16.746;2024-02-04T06:32:02;4.40;;;2.40;;
37199;SDS011;23096;50.892;16.746;2024-02-04T06:34:28;4.10;;;2.60;;
37199;SDS011;23096;50.892;16.746;2024-02-04T06:36:53;4.50;;;1.90;;
37199;SDS011;23096;50.892;16.746;2024-02-04T06:39:19;5.50;;;3.50;;
37199;SDS011;23096;50.892;16.746;2024-02-04T06:41:45;6.00;;;2.80;;
37199;SDS011;23096;50.892;16.746;2024-02-04T06:44:13;5.10;;;2.20;;
37199;SDS011;23096;50.892;16.746;2024-02-04T06:46:39;4.00;;;2.40;;
37199;SDS011;23096;50.892;16.746;2024-02-04T06:49:04;5.20;;;2.60;;
37199;SDS011;23096;50.892;16.746;2024-02-04T06:51:30;5.70;;;2.60;;
37199;SDS011;23096;50.892;16.746;2024-02-04T06:53:55;7.30;;;3.50;;
37199;SDS011;23096;50.892;16.746;2024-02-04T06:56:21;9.10;;;3.80;;
37199;SDS011;23096;50.892;16.746;2024-02-04T06:58:46;3.70;;;2.50;;
37199;SDS011;23096;50.892;16.746;2024-02-04T07:01:12;3.20;;;2.40;;
37199;SDS011;23096;50.892;16.746;2024-02-04T07:03:37;5.40;;;2.70;;
37199;SDS011;23096;50.892;16.746;2024-02-04T07:06:03;5.40;;;2.80;;
37199;SDS011;23096;50.892;16.746;2024-02-04T07:08:29;9.00;;;2.60;;
37199;SDS011;23096;50.892;16.746;2024-02-04T07:10:55;7.70;;;2.70;;
37199;SDS011;23096;50.892;16.746;2024-02-04T07:13:21;3.90;;;2.50;;
37199;SDS011;23096;50.892;16.746;2024-02-04T07:15:47;6.60;;;2.60;;
37199;SDS011;23096;50.892;16.746;2024-02-04T07:18:12;6.20;;;2.50;;
37199;SDS011;23096;50.892;16.746;2024-02-04T07:20:38;4.40;;;2.50;;
37199;SDS011;23096;50.892;16.746;2024-02-04T07:23:04;3.70;;;2.30;;
37199;SDS011;23096;50.892;16.746;2024-02-04T07:25:29;5.70;;;2.30;;
37199;SDS011;23096;50.892;16.746;2024-02-04T07:27:55;7.70;;;2.20;;
37199;SDS011;23096;50.892;16.746;2024-02-04T07:30:21;2.90;;;1.80;;
37199;SDS011;23096;50.892;16.746;2024-02-04T07:32:47;4.10;;;2.30;;
37199;SDS011;23096;50.892;16.746;2024-02-04T07:35:13;6.40;;;2.40;;
37199;SDS011;23096;50.892;16.746;2024-02-04T07:37:38;4.00;;;1.80;;
37199;SDS011;23096;50.892;16.746;2024-02-04T07:40:04;7.00;;;2.50;;
37199;SDS011;23096;50.892;16.746;2024-02-04T07:42:33;6.80;;;2.40;;
37199;SDS011;23096;50.892;16.746;2024-02-04T07:44:59;2.10;;;1.40;;
37199;SDS011;23096;50.892;16.746;2024-02-04T07:47:24;2.60;;;1.40;;
37199;SDS011;23096;50.892;16.746;2024-02-04T07:49:50;5.40;;;1.70;;
37199;SDS011;23096;50.892;16.746;2024-02-04T07:52:16;2.10;;;1.40;;
37199;SDS011;23096;50.892;16.746;2024-02-04T07:54:42;3.00;;;1.30;;
37199;SDS011;23096;50.892;16.746;2024-02-04T07:57:11;3.90;;;1.50;;
37199;SDS011;23096;50.892;16.746;2024-02-04T07:59:37;4.70;;;1.50;;
37199;SDS011;23096;50.892;16.746;2024-02-04T08:02:03;6.40;;;1.90;;
37199;SDS011;23096;50.892;16.746;2024-02-04T08:04:29;4.60;;;1.70;;
37199;SDS011;23096;50.892;16.746;2024-02-04T08:06:54;4.90;;;1.30;;
37199;SDS011;23096;50.892;16.746;2024-02-04T08:09:20;6.90;;;1.60;;
37199;SDS011;23096;50.892;16.746;2024-02-04T08:11:46;3.40;;;1.40;;
37199;SDS011;23096;50.892;16.746;2024-02-04T08:14:12;5.20;;;1.60;;
37199;SDS011;23096;50.892;16.746;2024-02-04T08:16:39;7.50;;;2.30;;
37199;SDS011;23096;50.892;16.746;2024-02-04T08:19:05;7.30;;;2.20;;
37199;SDS011;23096;50.892;16.746;2024-02-04T08:21:32;3.80;;;1.60;;
37199;SDS011;23096;50.892;16.746;2024-02-04T08:23:57;5.50;;;2.30;;
37199;SDS011;23096;50.892;16.746;2024-02-04T08:26:23;5.90;;;2.50;;
37199;SDS011;23096;50.892;16.746;2024-02-04T08:28:50;5.60;;;2.40;;
37199;SDS011;23096;50.892;16.746;2024-02-04T08:31:16;6.50;;;2.80;;
37199;SDS011;23096;50.892;16.746;2024-02-04T08:33:41;4.30;;;2.20;;
37199;SDS011;23096;50.892;16.746;2024-02-04T08:36:07;4.50;;;2.30;;
37199;SDS011;23096;50.892;16.746;2024-02-04T08:38:35;7.00;;;2.90;;
37199;SDS011;23096;50.892;16.746;2024-02-04T08:41:02;5.40;;;2.40;;
37199;SDS011;23096;50.892;16.746;2024-02-04T08:43:28;5.30;;;2.10;;
37199;SDS011;23096;50.892;16.746;2024-02-04T08:45:53;4.40;;;1.70;;
37199;SDS011;23096;50.892;16.746;2024-02-04T08:48:18;4.50;;;1.80;;
37199;SDS011;23096;50.892;16.746;2024-02-04T08:50:44;5.60;;;2.20;;
37199;SDS011;23096;50.892;16.746;2024-02-04T08:53:12;7.00;;;2.80;;
37199;SDS011;23096;50.892;16.746;2024-02-04T08:55:37;11.50;;;3.00;;
37199;SDS011;23096;50.892;16.746;2024-02-04T08:58:05;5.80;;;3.20;;
37199;SDS011;23096;50.892;16.746;2024-02-04T09:00:31;8.00;;;2.60;;
37199;SDS011;23096;50.892;16.746;2024-02-04T09:02:56;5.90;;;2.40;;
37199;SDS011;23096;50.892;16.746;2024-02-04T09:05:22;6.50;;;2.80;;
37199;SDS011;23096;50.892;16.746;2024-02-04T09:07:48;6.10;;;2.60;;
37199;SDS011;23096;50.892;16.746;2024-02-04T09:10:13;5.50;;;2.50;;
37199;SDS011;23096;50.892;16.746;2024-02-04T09:12:39;7.30;;;3.10;;
37199;SDS011;23096;50.892;16.746;2024-02-04T09:15:04;7.50;;;2.40;;
37199;SDS011;23096;50.892;16.746;2024-02-04T09:17:30;6.10;;;3.20;;
37199;SDS011;23096;50.892;16.746;2024-02-04T09:19:58;9.90;;;3.60;;
37199;SDS011;23096;50.892;16.746;2024-02-04T09:22:24;5.60;;;2.40;;
37199;SDS011;23096;50.892;16.746;2024-02-04T09:24:50;6.90;;;2.90;;
37199;SDS011;23096;50.892;16.746;2024-02-04T09:27:15;5.70;;;3.40;;
37199;SDS011;23096;50.892;16.746;2024-02-04T09:29:41;11.00;;;3.40;;
37199;SDS011;23096;50.892;16.746;2024-02-04T09:32:07;6.60;;;3.30;;
37199;SDS011;23096;50.892;16.746;2024-02-04T09:34:33;8.10;;;3.30;;
37199;SDS011;23096;50.892;16.746;2024-02-04T09:36:58;9.70;;;3.90;;
37199;SDS011;23096;50.892;16.746;2024-02-04T09:39:24;8.30;;;4.00;;
37199;SDS011;23096;50.892;16.746;2024-02-04T09:41:50;7.10;;;3.70;;
37199;SDS011;23096;50.892;16.746;2024-02-04T09:44:15;6.60;;;3.10;;
37199;SDS011;23096;50.892;16.746;2024-02-04T09:46:42;6.30;;;3.40;;
37199;SDS011;23096;50.892;16.746;2024-02-04T09:49:08;5.70;;;2.90;;
37199;SDS011;23096;50.892;16.746;2024-02-04T09:51:34;5.00;;;3.40;;
37199;SDS011;23096;50.892;16.746;2024-02-04T09:54:02;5.20;;;3.70;;
37199;SDS011;23096;50.892;16.746;2024-02-04T09:56:31;5.30;;;3.40;;
37199;SDS011;23096;50.892;16.746;2024-02-04T09:58:57;7.30;;;3.50;;
37199;SDS011;23096;50.892;16.746;2024-02-04T10:01:23;11.90;;;7.00;;
37199;SDS011;23096;50.892;16.746;2024-02-04T10:03:48;7.70;;;4.00;;
37199;SDS011;23096;50.892;16.746;2024-02-04T10:06:14;8.10;;;3.90;;
37199;SDS011;23096;50.892;16.746;2024-02-04T10:08:40;12.50;;;5.00;;
37199;SDS011;23096;50.892;16.746;2024-02-04T10:11:05;12.00;;;5.70;;
37199;SDS011;23096;50.892;16.746;2024-02-04T10:13:41;15.10;;;6.50;;
37199;SDS011;23096;50.892;16.746;2024-02-04T10:16:11;11.70;;;5.60;;
37199;SDS011;23096;50.892;16.746;2024-02-04T10:18:41;11.00;;;5.70;;
37199;SDS011;23096;50.892;16.746;2024-02-04T10:21:20;26.20;;;7.20;;
37199;SDS011;23096;50.892;16.746;2024-02-04T10:23:48;11.80;;;4.70;;
37199;SDS011;23096;50.892;16.746;2024-02-04T10:26:14;7.70;;;5.10;;
37199;SDS011;23096;50.892;16.746;2024-02-04T10:28:40;10.50;;;4.90;;
37199;SDS011;23096;50.892;16.746;2024-02-04T10:31:09;10.30;;;5.50;;
37199;SDS011;23096;50.892;16.746;2024-02-04T10:33:36;9.20;;;5.40;;
37199;SDS011;23096;50.892;16.746;2024-02-04T10:36:02;11.20;;;6.20;;
37199;SDS011;23096;50.892;16.746;2024-02-04T10:38:29;9.80;;;4.70;;
37199;SDS011;23096;50.892;16.746;2024-02-04T10:40:55;8.40;;;5.60;;
37199;SDS011;23096;50.892;16.746;2024-02-04T10:43:23;8.20;;;5.70;;
37199;SDS011;23096;50.892;16.746;2024-02-04T10:45:52;8.20;;;5.40;;
37199;SDS011;23096;50.892;16.746;2024-02-04T10:48:22;9.30;;;5.40;;
37199;SDS011;23096;50.892;16.746;2024-02-04T10:50:51;9.40;;;6.50;;
37199;SDS011;23096;50.892;16.746;2024-02-04T10:53:22;12.00;;;6.30;;
37199;SDS011;23096;50.892;16.746;2024-02-04T10:55:47;11.80;;;5.80;;
37199;SDS011;23096;50.892;16.746;2024-02-04T10:58:14;8.20;;;5.10;;
37199;SDS011;23096;50.892;16.746;2024-02-04T11:00:42;7.80;;;5.40;;
37199;SDS011;23096;50.892;16.746;2024-02-04T11:03:08;6.40;;;5.00;;
37199;SDS011;23096;50.892;16.746;2024-02-04T11:05:35;10.30;;;4.90;;
37199;SDS011;23096;50.892;16.746;2024-02-04T11:08:02;4.80;;;3.70;;
37199;SDS011;23096;50.892;16.746;2024-02-04T11:10:29;6.60;;;4.40;;
37199;SDS011;23096;50.892;16.746;2024-02-04T11:12:57;4.90;;;4.00;;
37199;SDS011;23096;50.892;16.746;2024-02-04T11:15:26;7.00;;;4.40;;
37199;SDS011;23096;50.892;16.746;2024-02-04T11:20:48;7.90;;;4.00;;
37199;SDS011;23096;50.892;16.746;2024-02-04T11:23:37;6.70;;;4.50;;
37199;SDS011;23096;50.892;16.746;2024-02-04T11:26:14;6.30;;;3.60;;
37199;SDS011;23096;50.892;16.746;2024-02-04T11:28:41;7.40;;;3.60;;
37199;SDS011;23096;50.892;16.746;2024-02-04T11:31:14;4.50;;;2.80;;
37199;SDS011;23096;50.892;16.746;2024-02-04T11:33:41;3.30;;;2.00;;
37199;SDS011;23096;50.892;16.746;2024-02-04T11:36:07;3.70;;;2.20;;
37199;SDS011;23096;50.892;16.746;2024-02-04T11:38:37;2.60;;;1.90;;
37199;SDS011;23096;50.892;16.746;2024-02-04T11:41:03;5.60;;;2.20;;
37199;SDS011;23096;50.892;16.746;2024-02-04T11:43:29;2.60;;;1.80;;
37199;SDS011;23096;50.892;16.746;2024-02-04T11:45:57;2.20;;;1.60;;
37199;SDS011;23096;50.892;16.746;2024-02-04T11:48:28;5.50;;;2.30;;
37199;SDS011;23096;50.892;16.746;2024-02-04T11:50:58;3.70;;;2.30;;
37199;SDS011;23096;50.892;16.746;2024-02-04T11:53:27;3.60;;;1.90;;
37199;SDS011;23096;50.892;16.746;2024-02-04T11:55:57;3.40;;;2.00;;
37199;SDS011;23096;50.892;16.746;2024-02-04T12:01:13;3.60;;;2.30;;
37199;SDS011;23096;50.892;16.746;2024-02-04T12:03:39;7.10;;;3.50;;
37199;SDS011;23096;50.892;16.746;2024-02-04T12:06:05;4.50;;;2.50;;
37199;SDS011;23096;50.892;16.746;2024-02-04T12:08:34;13.60;;;6.10;;
37199;SDS011;23096;50.892;16.746;2024-02-04T12:11:00;14.90;;;3.80;;
37199;SDS011;23096;50.892;16.746;2024-02-04T12:13:30;11.30;;;4.20;;
37199;SDS011;23096;50.892;16.746;2024-02-04T12:15:57;11.10;;;3.60;;
37199;SDS011;23096;50.892;16.746;2024-02-04T12:18:22;8.30;;;3.90;;
37199;SDS011;23096;50.892;16.746;2024-02-04T12:20:48;7.10;;;3.80;;
37199;SDS011;23096;50.892;16.746;2024-02-04T12:23:14;6.80;;;3.70;;
37199;SDS011;23096;50.892;16.746;2024-02-04T12:25:40;7.10;;;3.90;;
37199;SDS011;23096;50.892;16.746;2024-02-04T12:28:06;10.70;;;5.30;;
37199;SDS011;23096;50.892;16.746;2024-02-04T12:30:32;6.50;;;2.70;;
37199;SDS011;23096;50.892;16.746;2024-02-04T12:32:58;4.80;;;2.70;;
37199;SDS011;23096;50.892;16.746;2024-02-04T12:35:29;4.30;;;2.90;;
37199;SDS011;23096;50.892;16.746;2024-02-04T12:37:56;5.10;;;3.10;;
37199;SDS011;23096;50.892;16.746;2024-02-04T12:40:29;3.90;;;2.40;;
37199;SDS011;23096;50.892;16.746;2024-02-04T12:42:56;4.80;;;2.70;;
37199;SDS011;23096;50.892;16.746;2024-02-04T12:45:23;3.30;;;1.70;;
37199;SDS011;23096;50.892;16.746;2024-02-04T12:47:53;3.10;;;1.90;;
37199;SDS011;23096;50.892;16.746;2024-02-04T12:50:20;4.40;;;2.30;;
37199;SDS011;23096;50.892;16.746;2024-02-04T12:52:47;1.70;;;1.50;;
37199;SDS011;23096;50.892;16.746;2024-02-04T12:55:23;3.80;;;2.30;;
37199;SDS011;23096;50.892;16.746;2024-02-04T12:57:50;4.60;;;2.40;;
37199;SDS011;23096;50.892;16.746;2024-02-04T13:00:20;5.60;;;3.00;;
37199;SDS011;23096;50.892;16.746;2024-02-04T13:02:48;4.00;;;2.30;;
37199;SDS011;23096;50.892;16.746;2024-02-04T13:05:22;5.20;;;2.60;;
37199;SDS011;23096;50.892;16.746;2024-02-04T13:07:53;4.90;;;2.40;;
37199;SDS011;23096;50.892;16.746;2024-02-04T13:10:26;4.60;;;2.50;;
37199;SDS011;23096;50.892;16.746;2024-02-04T13:12:59;3.30;;;2.10;;
37199;SDS011;23096;50.892;16.746;2024-02-04T13:15:29;3.20;;;2.00;;
37199;SDS011;23096;50.892;16.746;2024-02-04T13:17:57;2.90;;;1.90;;
37199;SDS011;23096;50.892;16.746;2024-02-04T13:20:22;3.40;;;1.90;;
37199;SDS011;23096;50.892;16.746;2024-02-04T13:22:48;3.60;;;2.10;;
37199;SDS011;23096;50.892;16.746;2024-02-04T13:25:14;4.60;;;2.80;;
37199;SDS011;23096;50.892;16.746;2024-02-04T13:27:41;3.50;;;2.10;;
37199;SDS011;23096;50.892;16.746;2024-02-04T13:30:07;3.90;;;2.20;;
37199;SDS011;23096;50.892;16.746;2024-02-04T13:32:41;7.00;;;4.10;;
37199;SDS011;23096;50.892;16.746;2024-02-04T13:35:08;5.60;;;3.70;;
37199;SDS011;23096;50.892;16.746;2024-02-04T13:37:35;7.40;;;3.90;;
37199;SDS011;23096;50.892;16.746;2024-02-04T13:40:03;5.60;;;3.50;;
37199;SDS011;23096;50.892;16.746;2024-02-04T13:42:29;5.60;;;2.90;;
37199;SDS011;23096;50.892;16.746;2024-02-04T13:44:55;9.00;;;5.70;;
37199;SDS011;23096;50.892;16.746;2024-02-04T13:47:20;11.60;;;6.40;;
37199;SDS011;23096;50.892;16.746;2024-02-04T13:49:46;8.90;;;5.00;;
37199;SDS011;23096;50.892;16.746;2024-02-04T13:52:12;5.60;;;3.20;;
37199;SDS011;23096;50.892;16.746;2024-02-04T13:54:37;11.10;;;6.80;;
37199;SDS011;23096;50.892;16.746;2024-02-04T13:57:03;9.30;;;5.20;;
37199;SDS011;23096;50.892;16.746;2024-02-04T13:59:29;13.90;;;7.10;;
37199;SDS011;23096;50.892;16.746;2024-02-04T14:01:55;7.10;;;4.00;;
37199;SDS011;23096;50.892;16.746;2024-02-04T14:04:21;8.60;;;4.80;;
37199;SDS011;23096;50.892;16.746;2024-02-04T14:06:47;7.10;;;3.50;;
37199;SDS011;23096;50.892;16.746;2024-02-04T14:09:12;11.10;;;6.10;;
37199;SDS011;23096;50.892;16.746;2024-02-04T14:11:38;18.00;;;10.30;;
37199;SDS011;23096;50.892;16.746;2024-02-04T14:14:04;7.50;;;3.90;;
37199;SDS011;23096;50.892;16.746;2024-02-04T14:16:29;7.40;;;3.90;;
37199;SDS011;23096;50.892;16.746;2024-02-04T14:18:55;4.40;;;2.50;;
37199;SDS011;23096;50.892;16.746;2024-02-04T14:21:21;5.80;;;3.40;;
37199;SDS011;23096;50.892;16.746;2024-02-04T14:23:46;13.30;;;7.20;;
37199;SDS011;23096;50.892;16.746;2024-02-04T14:26:16;5.40;;;3.20;;
37199;SDS011;23096;50.892;16.746;2024-02-04T14:28:42;7.90;;;4.80;;
37199;SDS011;23096;50.892;16.746;2024-02-04T14:31:08;6.40;;;3.80;;
37199;SDS011;23096;50.892;16.746;2024-02-04T14:33:34;4.30;;;2.40;;
37199;SDS011;23096;50.892;16.746;2024-02-04T14:35:59;2.50;;;1.90;;
37199;SDS011;23096;50.892;16.746;2024-02-04T14:38:29;4.00;;;2.10;;
37199;SDS011;23096;50.892;16.746;2024-02-04T14:40:57;2.80;;;1.70;;